Time;durP1;ratioP1;P1;durP2;ratioP2;P2;SDS_P1;SDS_P2;PMS_P1;PMS_P2;Temp;Humidity;BMP_temperature;BMP_pressure;BME280_temperature;BME280_humidity;BME280_pressure;Samples;Min_cycle;Max_cycle;Signal;HPM_P1;HPM_P2
2023/02/04 00:01:33;;;;;;;12.50;7.30;;;;;;;0.93;59.94;100148.67;107556;1262;73215;-77
2023/02/04 00:04:01;;;;;;;12.60;7.60;;;;;;;0.87;60.11;100152.54;107784;1259;73322;-77
2023/02/04 00:06:29;;;;;;;13.00;7.40;;;;;;;0.80;60.43;100148.36;107670;1257;60528;-76
2023/02/04 00:08:58;;;;;;;11.60;7.30;;;;;;;0.77;60.47;100148.35;107685;1257;60452;-76
2023/02/04 00:11:26;;;;;;;14.40;7.80;;;;;;;0.73;60.51;100145.93;107667;1257;74149;-78
2023/02/04 00:13:54;;;;;;;12.60;7.40;;;;;;;0.69;60.78;100143.15;107662;1257;70987;-78
2023/02/04 00:16:23;;;;;;;10.70;6.70;;;;;;;0.63;60.57;100143.88;107615;1257;72900;-76
2023/02/04 00:18:51;;;;;;;13.10;7.50;;;;;;;0.57;60.72;100146.98;107793;1257;60987;-77
2023/02/04 00:21:19;;;;;;;13.20;7.50;;;;;;;0.52;61.11;100146.98;107700;1262;61280;-76
2023/02/04 00:23:51;;;;;;;12.70;7.40;;;;;;;0.50;61.26;100143.55;107650;1258;73969;-78
2023/02/04 00:26:19;;;;;;;11.90;6.60;;;;;;;0.46;61.29;100141.92;107720;1257;72012;-77
2023/02/04 00:28:47;;;;;;;11.10;7.20;;;;;;;0.44;61.36;100140.75;107605;1257;72570;-76
2023/02/04 00:31:16;;;;;;;10.30;6.20;;;;;;;0.45;61.56;100141.83;107656;1262;60869;-76
2023/02/04 00:33:45;;;;;;;12.50;7.50;;;;;;;0.45;61.31;100143.97;107637;1259;60323;-77
2023/02/04 00:36:13;;;;;;;10.60;7.00;;;;;;;0.43;61.35;100146.66;107593;1259;74045;-79
2023/02/04 00:38:41;;;;;;;11.70;7.50;;;;;;;0.41;61.52;100145.75;107616;1259;71995;-78
2023/02/04 00:41:10;;;;;;;12.20;7.00;;;;;;;0.39;61.54;100149.14;107600;1258;73358;-78
2023/02/04 00:43:39;;;;;;;12.50;7.80;;;;;;;0.39;61.44;100154.27;107693;1257;61187;-76
2023/02/04 00:46:07;;;;;;;12.20;7.60;;;;;;;0.37;61.57;100150.28;107690;1259;60468;-77
2023/02/04 00:48:37;;;;;;;11.20;7.00;;;;;;;0.37;61.55;100149.48;107713;1258;73642;-76
2023/02/04 00:51:05;;;;;;;12.00;7.10;;;;;;;0.38;61.94;100150.40;107642;1257;71856;-77
2023/02/04 00:53:34;;;;;;;11.60;7.40;;;;;;;0.41;61.85;100153.08;107744;1258;71233;-77
2023/02/04 00:56:04;;;;;;;12.30;7.10;;;;;;;0.44;61.96;100153.89;107618;1257;60448;-77
2023/02/04 00:58:33;;;;;;;10.20;7.20;;;;;;;0.45;61.80;100150.97;107769;1257;60429;-76
2023/02/04 01:01:03;;;;;;;11.20;7.50;;;;;;;0.46;61.68;100147.60;107730;1257;73591;-77
2023/02/04 01:03:32;;;;;;;10.30;6.90;;;;;;;0.45;61.64;100147.13;107732;1259;73411;-77
2023/02/04 01:06:00;;;;;;;13.20;7.60;;;;;;;0.43;61.60;100145.27;107762;1262;72569;-77
2023/02/04 01:08:30;;;;;;;11.10;7.70;;;;;;;0.41;61.59;100146.77;108262;1257;61216;-77
2023/02/04 01:10:58;;;;;;;11.10;7.20;;;;;;;0.41;61.43;100146.48;108546;1261;60341;-77
2023/02/04 01:13:27;;;;;;;11.10;7.40;;;;;;;0.41;61.57;100143.61;108567;1257;72258;-78
2023/02/04 01:15:55;;;;;;;10.30;7.20;;;;;;;0.40;61.44;100143.57;108601;1262;72328;-77
2023/02/04 01:18:24;;;;;;;11.10;6.80;;;;;;;0.39;61.28;100144.25;108494;1259;70434;-77
2023/02/04 01:20:52;;;;;;;11.40;7.30;;;;;;;0.38;61.36;100142.64;107750;1257;60524;-78
2023/02/04 01:23:20;;;;;;;11.40;7.50;;;;;;;0.38;61.45;100147.69;108124;1259;60563;-78
2023/02/04 01:25:50;;;;;;;12.40;7.80;;;;;;;0.38;61.39;100144.33;107865;1260;71899;-78
2023/02/04 01:28:18;;;;;;;11.70;7.00;;;;;;;0.40;61.51;100146.60;107985;1259;71033;-78
2023/02/04 01:30:47;;;;;;;13.30;7.80;;;;;;;0.42;61.38;100143.54;107996;1257;72944;-79
2023/02/04 01:33:16;;;;;;;10.80;7.00;;;;;;;0.46;61.55;100148.39;108092;1256;60044;-78
2023/02/04 01:35:47;;;;;;;13.70;7.70;;;;;;;0.52;61.54;100149.16;108047;1256;60270;-78
2023/02/04 01:38:15;;;;;;;12.00;7.80;;;;;;;0.57;61.55;100146.77;108340;1256;72293;-77
2023/02/04 01:40:44;;;;;;;11.60;7.30;;;;;;;0.63;61.58;100148.12;108374;1256;70938;-78
2023/02/04 01:43:12;;;;;;;11.70;7.50;;;;;;;0.63;61.50;100146.51;108388;1256;70930;-77
2023/02/04 01:45:41;;;;;;;11.90;7.90;;;;;;;0.67;61.63;100148.48;108299;1256;62128;-77
2023/02/04 01:48:11;;;;;;;10.90;7.30;;;;;;;0.70;61.55;100149.46;108197;1256;61102;-77
2023/02/04 01:50:39;;;;;;;10.90;6.40;;;;;;;0.73;61.52;100145.41;108028;1256;75320;-77
2023/02/04 01:53:08;;;;;;;11.20;6.80;;;;;;;0.73;61.28;100143.76;107798;1256;71790;-77
2023/02/04 01:55:36;;;;;;;10.30;7.00;;;;;;;0.71;61.41;100142.21;107997;1256;72695;-77
2023/02/04 01:58:09;;;;;;;10.50;6.70;;;;;;;0.60;61.65;100138.17;107899;1257;60515;-77
2023/02/04 02:00:38;;;;;;;11.20;6.80;;;;;;;0.75;61.42;100139.80;107713;1256;61093;-76
2023/02/04 02:03:10;;;;;;;11.20;6.90;;;;;;;0.80;61.37;100138.73;107777;1256;75179;-77
2023/02/04 02:05:44;;;;;;;11.10;6.60;;;;;;;0.83;61.15;100136.90;108000;1256;70912;-77
2023/02/04 02:08:12;;;;;;;10.80;7.00;;;;;;;0.85;61.13;100136.99;107956;1256;73350;-76
2023/02/04 02:10:43;;;;;;;11.20;6.80;;;;;;;0.88;61.18;100135.02;107735;1256;61203;-76
2023/02/04 02:13:15;;;;;;;10.00;6.40;;;;;;;0.93;61.09;100139.12;107804;1258;60890;-77
2023/02/04 02:15:44;;;;;;;11.60;6.60;;;;;;;0.97;61.22;100136.13;107945;1256;72137;-77
2023/02/04 02:18:13;;;;;;;10.30;6.40;;;;;;;0.99;61.16;100134.11;107710;1256;72775;-77
2023/02/04 02:20:42;;;;;;;8.70;5.40;;;;;;;1.01;61.05;100132.45;107736;1262;72873;-77
2023/02/04 02:23:43;;;;;;;10.90;7.20;;;;;;;1.03;61.07;100134.19;107885;1256;60330;-77
2023/02/04 02:26:12;;;;;;;11.90;7.40;;;;;;;1.06;61.15;100135.56;107684;1256;61638;-78
2023/02/04 02:28:41;;;;;;;9.90;6.50;;;;;;;1.09;61.07;100138.46;107754;1256;74323;-78
2023/02/04 02:31:09;;;;;;;9.10;6.10;;;;;;;1.15;61.07;100137.73;107875;1257;72179;-77
2023/02/04 02:33:38;;;;;;;10.20;6.10;;;;;;;1.22;60.96;100137.71;107906;1256;70720;-77
2023/02/04 02:36:07;;;;;;;10.60;6.40;;;;;;;1.23;60.86;100141.11;107966;1256;60149;-77
2023/02/04 02:38:35;;;;;;;8.80;6.00;;;;;;;1.23;60.81;100139.32;107956;1256;61321;-78
2023/02/04 02:41:04;;;;;;;9.60;6.00;;;;;;;1.27;60.57;100139.73;107778;1257;71467;-78
2023/02/04 02:43:33;;;;;;;9.80;5.90;;;;;;;1.32;60.57;100141.30;107709;1257;72738;-78
2023/02/04 02:46:01;;;;;;;9.60;6.20;;;;;;;1.36;60.55;100142.13;107683;1256;73026;-78
2023/02/04 02:48:31;;;;;;;10.90;6.40;;;;;;;1.40;60.50;100139.40;107873;1257;62023;-79
2023/02/04 02:50:59;;;;;;;11.10;6.90;;;;;;;1.44;60.22;100142.08;107648;1256;60460;-77
2023/02/04 02:53:28;;;;;;;11.30;6.70;;;;;;;1.50;60.42;100143.44;107732;1256;72394;-76
2023/02/04 02:55:57;;;;;;;10.30;6.30;;;;;;;1.54;60.26;100146.09;107662;1259;73933;-76
2023/02/04 02:58:28;;;;;;;9.70;6.10;;;;;;;1.57;60.28;100146.93;107649;1256;72694;-78
2023/02/04 03:00:56;;;;;;;11.10;5.60;;;;;;;1.57;60.11;100145.91;107875;1256;60393;-77
2023/02/04 03:03:26;;;;;;;9.40;6.70;;;;;;;1.51;60.01;100145.81;107616;1256;60261;-77
2023/02/04 03:05:58;;;;;;;9.70;6.40;;;;;;;1.45;60.05;100142.67;107900;1261;74160;-77
2023/02/04 03:08:26;;;;;;;8.30;4.60;;;;;;;1.47;60.09;100144.29;107970;1256;72410;-77
2023/02/04 03:10:54;;;;;;;11.10;6.60;;;;;;;1.52;60.15;100142.00;107791;1257;73478;-77
2023/02/04 03:13:25;;;;;;;10.00;6.50;;;;;;;1.57;60.09;100143.92;107690;1256;62089;-76
2023/02/04 03:15:56;;;;;;;9.50;5.90;;;;;;;1.65;60.12;100148.24;107784;1257;60967;-78
2023/02/04 03:18:30;;;;;;;10.20;6.20;;;;;;;1.68;60.03;100149.56;107700;1256;73847;-77
2023/02/04 03:20:58;;;;;;;9.90;6.00;;;;;;;1.69;59.92;100149.84;107781;1256;72143;-79
2023/02/04 03:23:26;;;;;;;9.70;5.80;;;;;;;1.72;59.88;100151.61;107867;1261;72599;-78
2023/02/04 03:25:55;;;;;;;9.30;6.30;;;;;;;1.75;59.79;100149.30;107689;1257;61412;-78
2023/02/04 03:28:24;;;;;;;9.50;6.20;;;;;;;1.71;59.44;100153.03;107928;1256;60350;-78
2023/02/04 03:30:55;;;;;;;10.20;6.60;;;;;;;1.67;59.47;100153.25;107978;1256;73790;-78
2023/02/04 03:33:27;;;;;;;7.70;4.50;;;;;;;1.66;59.46;100160.70;107957;1257;71645;-76
2023/02/04 03:35:57;;;;;;;10.20;6.60;;;;;;;1.63;59.56;100162.63;108005;1260;72983;-78
2023/02/04 03:38:25;;;;;;;9.70;6.40;;;;;;;1.63;59.57;100160.19;107967;1256;60297;-78
2023/02/04 03:40:54;;;;;;;9.20;5.60;;;;;;;1.67;59.57;100160.38;107932;1256;60345;-76
2023/02/04 03:43:22;;;;;;;10.40;6.70;;;;;;;1.66;59.41;100161.55;107906;1257;72831;-77
2023/02/04 03:45:50;;;;;;;9.20;6.10;;;;;;;1.61;59.31;100158.53;107986;1256;72872;-77
2023/02/04 03:48:19;;;;;;;10.80;6.40;;;;;;;1.59;59.27;100159.40;107809;1261;72534;-77
2023/02/04 03:50:47;;;;;;;10.60;6.50;;;;;;;1.56;59.30;100161.39;107673;1256;61172;-78
2023/02/04 03:53:16;;;;;;;11.00;6.40;;;;;;;1.59;59.17;100162.88;107947;1256;60678;-79
2023/02/04 03:55:46;;;;;;;9.50;6.20;;;;;;;1.68;59.39;100166.30;107968;1256;74255;-77
2023/02/04 03:58:15;;;;;;;11.10;6.70;;;;;;;1.76;59.41;100167.88;107933;1256;73977;-77
2023/02/04 04:00:44;;;;;;;9.60;6.00;;;;;;;1.83;59.23;100164.65;107968;1256;73744;-77
2023/02/04 04:03:12;;;;;;;9.60;5.40;;;;;;;1.90;59.17;100167.95;107972;1257;60182;-78
2023/02/04 04:05:41;;;;;;;11.70;6.30;;;;;;;1.93;59.09;100161.61;107940;1256;60460;-78
2023/02/04 04:08:09;;;;;;;10.00;6.40;;;;;;;1.93;59.12;100163.52;107904;1261;73047;-78
2023/02/04 04:10:37;;;;;;;10.60;6.20;;;;;;;1.87;59.11;100162.04;108019;1256;71823;-78
2023/02/04 04:13:12;;;;;;;11.40;6.60;;;;;;;1.79;59.20;100164.71;107958;1256;72254;-77
2023/02/04 04:15:41;;;;;;;9.20;6.10;;;;;;;1.79;59.59;100164.35;107969;1258;60413;-77
2023/02/04 04:18:09;;;;;;;11.00;7.00;;;;;;;1.82;59.52;100164.62;108020;1256;60440;-77
2023/02/04 04:20:39;;;;;;;12.10;7.10;;;;;;;1.88;59.43;100164.75;107990;1256;75075;-78
2023/02/04 04:23:09;;;;;;;8.90;6.20;;;;;;;1.91;59.53;100164.98;107941;1259;71778;-77
2023/02/04 04:25:37;;;;;;;9.90;6.10;;;;;;;1.88;59.36;100167.99;107670;1258;70733;-77
2023/02/04 04:28:06;;;;;;;8.90;6.20;;;;;;;1.88;59.34;100166.09;107706;1256;61792;-77
2023/02/04 04:30:34;;;;;;;10.90;6.60;;;;;;;1.91;59.32;100168.46;107888;1256;60454;-77
2023/02/04 04:33:03;;;;;;;10.40;6.40;;;;;;;1.94;59.11;100171.46;107879;1256;73145;-77
2023/02/04 04:35:32;;;;;;;10.50;6.10;;;;;;;1.99;59.32;100173.95;107946;1256;71304;-78
2023/02/04 04:38:01;;;;;;;10.40;6.30;;;;;;;2.03;59.03;100172.34;107685;1256;73670;-77
2023/02/04 04:40:30;;;;;;;9.90;6.30;;;;;;;2.05;58.95;100173.63;108006;1256;60944;-77
2023/02/04 04:43:00;;;;;;;10.00;6.50;;;;;;;2.07;58.82;100172.77;108010;1256;61235;-78
2023/02/04 04:45:28;;;;;;;11.80;6.50;;;;;;;2.12;58.84;100177.60;107882;1256;73524;-78
2023/02/04 04:47:57;;;;;;;12.10;7.60;;;;;;;2.17;58.91;100181.35;107959;1256;72362;-77
2023/02/04 04:50:26;;;;;;;13.60;7.60;;;;;;;2.18;58.79;100183.48;107892;1256;73826;-78
2023/02/04 04:52:54;;;;;;;11.50;7.40;;;;;;;2.19;58.80;100184.80;107945;1256;61361;-77
2023/02/04 04:55:23;;;;;;;11.00;7.30;;;;;;;2.18;58.59;100186.26;107996;1256;59561;-77
2023/02/04 04:57:51;;;;;;;11.60;7.70;;;;;;;2.19;58.76;100188.40;107905;1256;74113;-77
2023/02/04 05:00:21;;;;;;;12.80;7.80;;;;;;;2.21;58.76;100189.40;107935;1257;72120;-78
2023/02/04 05:02:50;;;;;;;11.90;7.30;;;;;;;2.23;58.58;100190.13;108005;1256;71680;-76
2023/02/04 05:05:19;;;;;;;10.80;6.90;;;;;;;2.24;58.54;100188.06;107965;1256;60467;-78
2023/02/04 05:07:48;;;;;;;12.00;7.40;;;;;;;2.27;58.56;100193.23;107880;1256;60302;-78
2023/02/04 05:10:17;;;;;;;10.90;7.30;;;;;;;2.30;58.53;100196.85;107971;1260;74559;-77
2023/02/04 05:12:46;;;;;;;11.20;6.90;;;;;;;2.33;58.42;100199.23;107940;1256;73472;-76
2023/02/04 05:15:21;;;;;;;14.50;8.30;;;;;;;2.38;58.53;100203.30;107990;1256;73712;-78
2023/02/04 05:17:49;;;;;;;13.50;8.80;;;;;;;2.42;58.51;100209.44;107956;1256;60434;-77
2023/02/04 05:20:18;;;;;;;15.90;10.10;;;;;;;2.44;58.54;100213.08;107898;1256;61244;-78
2023/02/04 05:22:46;;;;;;;13.50;8.20;;;;;;;2.45;58.54;100219.77;107867;1257;73587;-78
2023/02/04 05:25:15;;;;;;;17.20;9.70;;;;;;;2.43;58.56;100225.89;108001;1256;72475;-79
2023/02/04 05:27:45;;;;;;;16.30;9.40;;;;;;;2.41;58.57;100227.77;107617;1257;72874;-77
2023/02/04 05:30:13;;;;;;;14.30;8.90;;;;;;;2.42;58.68;100230.65;107872;1256;61847;-78
2023/02/04 05:32:42;;;;;;;12.40;8.60;;;;;;;2.42;58.67;100234.98;107609;1257;60277;-78
2023/02/04 05:35:10;;;;;;;15.90;8.90;;;;;;;2.41;58.64;100237.87;107857;1257;74163;-77
2023/02/04 05:37:39;;;;;;;15.10;8.50;;;;;;;2.40;58.94;100237.86;107926;1256;72886;-77
2023/02/04 05:40:11;;;;;;;14.00;8.40;;;;;;;2.40;58.95;100243.27;107797;1259;71670;-77
2023/02/04 05:42:40;;;;;;;;;;;;;;;2.41;58.75;100246.70;107735;1260;60283;-79
2023/02/04 05:45:12;;;;;;;13.40;8.20;;;;;;;2.40;58.97;100247.88;107775;1256;60404;-79
2023/02/04 05:47:41;;;;;;;15.50;9.00;;;;;;;2.40;58.98;100256.69;107719;1259;74739;-78
2023/02/04 05:50:12;;;;;;;15.50;8.40;;;;;;;2.42;59.11;100258.30;107859;1262;71645;-76
2023/02/04 05:52:40;;;;;;;13.30;8.90;;;;;;;2.45;59.15;100258.36;107980;1257;71809;-78
2023/02/04 05:55:10;;;;;;;13.60;8.90;;;;;;;2.52;59.18;100265.76;107730;1256;60349;-77
2023/02/04 05:57:38;;;;;;;14.40;9.30;;;;;;;2.56;59.06;100270.56;107778;1257;60338;-76
2023/02/04 06:00:07;;;;;;;14.60;9.30;;;;;;;2.61;58.92;100272.45;107969;1256;74032;-77
2023/02/04 06:02:42;;;;;;;13.90;8.70;;;;;;;2.63;58.98;100272.14;107965;1256;72096;-76
2023/02/04 06:05:11;;;;;;;13.80;9.10;;;;;;;2.62;58.95;100274.17;107886;1257;70745;-78
2023/02/04 06:07:40;;;;;;;11.10;8.00;;;;;;;2.62;58.96;100278.91;107933;1256;60817;-78
2023/02/04 06:10:09;;;;;;;11.80;8.10;;;;;;;2.63;58.91;100279.55;107961;1257;60311;-77
2023/02/04 06:12:37;;;;;;;13.40;7.40;;;;;;;2.64;59.08;100287.20;107808;1256;74073;-78
2023/02/04 06:15:07;;;;;;;12.20;7.40;;;;;;;2.63;59.02;100285.31;107952;1256;73866;-76
2023/02/04 06:17:35;;;;;;;10.40;6.80;;;;;;;2.58;58.79;100290.50;107775;1256;72512;-77
2023/02/04 06:20:05;;;;;;;11.60;7.10;;;;;;;2.54;59.00;100288.67;107977;1257;59880;-77
2023/02/04 06:22:33;;;;;;;10.40;6.60;;;;;;;2.54;58.98;100287.77;107853;1256;60948;-77
2023/02/04 06:25:03;;;;;;;10.50;6.40;;;;;;;2.54;59.22;100288.63;107827;1256;74148;-78
2023/02/04 06:27:33;;;;;;;8.50;5.40;;;;;;;2.55;59.23;100291.96;107906;1256;73019;-77
2023/02/04 06:30:01;;;;;;;10.80;5.70;;;;;;;2.57;59.16;100292.25;107882;1257;72996;-77
2023/02/04 06:32:30;;;;;;;9.20;5.60;;;;;;;2.60;59.31;100291.19;107876;1260;60427;-78
2023/02/04 06:34:59;;;;;;;9.20;5.40;;;;;;;2.64;59.23;100294.38;107830;1256;60456;-75
2023/02/04 06:37:29;;;;;;;7.40;4.60;;;;;;;2.67;59.07;100298.29;107653;1259;73197;-75
2023/02/04 06:39:58;;;;;;;9.10;5.20;;;;;;;2.70;59.07;100300.02;107748;1256;74180;-77
2023/02/04 06:42:26;;;;;;;8.50;5.00;;;;;;;2.73;59.01;100303.08;107956;1256;73239;-76
2023/02/04 06:44:54;;;;;;;7.80;5.20;;;;;;;2.73;58.83;100307.83;107935;1256;60731;-75
2023/02/04 06:47:23;;;;;;;8.40;5.90;;;;;;;2.76;58.94;100309.36;107907;1256;61520;-76
2023/02/04 06:49:51;;;;;;;8.70;5.80;;;;;;;2.80;58.90;100312.17;107994;1256;72963;-77
2023/02/04 06:52:19;;;;;;;8.70;5.40;;;;;;;2.85;58.80;100316.13;107963;1256;74152;-77
2023/02/04 06:54:48;;;;;;;8.20;5.20;;;;;;;2.86;58.77;100316.56;107695;1256;72358;-77
2023/02/04 06:57:16;;;;;;;8.80;5.70;;;;;;;2.84;58.79;100320.19;107970;1256;60515;-77
2023/02/04 06:59:46;;;;;;;8.80;5.60;;;;;;;2.85;58.84;100321.63;107922;1257;60576;-77
2023/02/04 07:02:14;;;;;;;9.30;5.80;;;;;;;2.85;58.97;100325.25;107716;1256;74661;-77
2023/02/04 07:04:43;;;;;;;10.60;6.80;;;;;;;2.85;59.09;100327.64;107941;1256;72227;-77
2023/02/04 07:07:15;;;;;;;10.80;6.50;;;;;;;2.84;59.36;100330.21;107925;1256;73883;-76
2023/02/04 07:09:43;;;;;;;10.90;6.30;;;;;;;2.85;59.63;100336.34;107970;1256;61194;-77
2023/02/04 07:12:11;;;;;;;9.60;5.90;;;;;;;2.85;59.84;100336.04;107957;1256;60345;-77
2023/02/04 07:14:42;;;;;;;9.00;4.80;;;;;;;2.84;59.91;100340.33;107958;1256;73847;-77
2023/02/04 07:17:11;;;;;;;10.90;6.30;;;;;;;2.84;59.93;100341.54;108161;1256;73047;-77
2023/02/04 07:19:40;;;;;;;10.40;6.40;;;;;;;2.87;60.26;100342.16;108029;1260;72669;-77
2023/02/04 07:22:08;;;;;;;10.70;6.50;;;;;;;2.91;60.22;100341.41;107938;1256;62440;-77
2023/02/04 07:24:37;;;;;;;10.10;6.20;;;;;;;2.92;60.40;100341.96;107949;1256;60416;-77
2023/02/04 07:27:06;;;;;;;10.40;6.70;;;;;;;2.90;60.26;100344.90;107954;1256;74969;-77
2023/02/04 07:29:35;;;;;;;12.60;6.70;;;;;;;2.90;60.43;100349.18;107989;1260;73000;-77
2023/02/04 07:32:04;;;;;;;10.50;6.50;;;;;;;2.91;60.59;100349.33;107970;1256;72498;-77
2023/02/04 07:34:33;;;;;;;9.00;5.70;;;;;;;2.94;60.52;100350.08;107950;1256;60349;-77
2023/02/04 07:37:02;;;;;;;9.40;6.30;;;;;;;2.95;60.53;100347.15;107798;1256;60302;-77
2023/02/04 07:39:30;;;;;;;10.80;6.50;;;;;;;2.94;60.44;100348.59;107923;1256;73367;-77
2023/02/04 07:41:59;;;;;;;12.00;5.90;;;;;;;2.95;60.47;100351.20;107902;1256;73170;-77
2023/02/04 07:44:32;;;;;;;9.40;6.20;;;;;;;2.94;60.51;100347.45;107927;1256;72624;-79
2023/02/04 07:47:01;;;;;;;9.60;6.10;;;;;;;2.98;60.36;100351.15;107990;1256;60432;-77
2023/02/04 07:49:30;;;;;;;9.10;5.80;;;;;;;3.03;60.43;100351.52;107997;1257;61149;-79
2023/02/04 07:51:59;;;;;;;10.50;7.10;;;;;;;3.08;60.41;100350.33;107946;1261;73395;-77
2023/02/04 07:54:27;;;;;;;11.60;5.70;;;;;;;3.13;60.35;100355.56;107696;1256;72955;-78
2023/02/04 07:56:56;;;;;;;9.40;6.10;;;;;;;3.22;60.42;100356.12;107953;1257;73086;-77
2023/02/04 07:59:24;;;;;;;10.40;6.70;;;;;;;3.28;60.36;100357.74;107842;1257;60193;-78
2023/02/04 08:01:52;;;;;;;9.90;6.00;;;;;;;3.34;60.30;100358.15;107977;1262;61283;-78
2023/02/04 08:04:21;;;;;;;10.10;6.20;;;;;;;3.40;60.28;100359.28;107944;1256;73746;-78
2023/02/04 08:06:49;;;;;;;8.70;5.60;;;;;;;3.48;60.20;100355.45;107919;1256;73108;-78
2023/02/04 08:09:18;;;;;;;9.70;5.80;;;;;;;3.58;60.00;100356.23;107917;1257;72640;-78
2023/02/04 08:11:46;;;;;;;8.50;5.30;;;;;;;3.67;60.00;100358.83;107847;1257;165109;-77
2023/02/04 08:14:15;;;;;;;8.50;5.20;;;;;;;3.74;59.75;100358.00;107965;1261;60311;-78
2023/02/04 08:16:43;;;;;;;7.70;5.00;;;;;;;3.80;59.36;100365.64;107980;1257;72595;-78
2023/02/04 08:19:17;;;;;;;7.60;5.00;;;;;;;3.78;58.95;100370.48;107974;1256;71663;-78
2023/02/04 08:21:46;;;;;;;7.80;4.80;;;;;;;3.76;58.64;100368.11;108019;1257;73900;-76
2023/02/04 08:24:15;;;;;;;7.30;4.50;;;;;;;3.73;58.40;100366.23;107966;1258;60319;-75
2023/02/04 08:26:43;;;;;;;7.60;4.50;;;;;;;3.71;58.20;100370.21;108003;1257;59567;-75
2023/02/04 08:29:11;;;;;;;7.90;4.30;;;;;;;3.72;57.95;100370.02;108009;1259;72893;-76
2023/02/04 08:31:39;;;;;;;6.40;4.00;;;;;;;3.70;57.63;100373.36;108014;1257;73962;-77
2023/02/04 08:34:08;;;;;;;7.60;4.30;;;;;;;3.67;57.45;100374.95;107978;1257;72715;-77
2023/02/04 08:36:37;;;;;;;6.30;3.80;;;;;;;3.64;57.19;100375.92;108003;1258;60341;-77
2023/02/04 08:39:05;;;;;;;6.70;4.40;;;;;;;3.61;56.91;100383.05;107966;1257;60345;-76
2023/02/04 08:41:33;;;;;;;5.70;3.40;;;;;;;3.59;56.58;100384.42;108070;1257;74777;-76
2023/02/04 08:44:02;;;;;;;6.20;4.00;;;;;;;3.56;56.34;100381.89;108043;1257;71746;-77
2023/02/04 08:46:30;;;;;;;6.40;3.80;;;;;;;3.54;56.37;100388.77;108064;1260;71762;-77
2023/02/04 08:48:59;;;;;;;6.70;3.80;;;;;;;3.56;56.37;100385.39;107964;1257;60287;-76
2023/02/04 08:51:28;;;;;;;5.10;3.50;;;;;;;3.54;56.33;100386.56;108010;1257;60425;-77
2023/02/04 08:53:57;;;;;;;6.80;3.50;;;;;;;3.48;56.12;100384.00;108049;1261;74044;-76
2023/02/04 08:56:25;;;;;;;5.70;3.60;;;;;;;3.40;56.27;100387.52;108031;1257;72430;-77
2023/02/04 08:58:53;;;;;;;5.50;3.90;;;;;;;3.41;56.47;100394.50;107972;1257;73656;-77
2023/02/04 09:01:22;;;;;;;6.50;3.90;;;;;;;3.43;56.27;100394.00;108013;1256;60434;-75
2023/02/04 09:03:50;;;;;;;8.00;5.10;;;;;;;3.47;56.14;100394.65;107986;1257;60199;-75
2023/02/04 09:06:18;;;;;;;5.60;4.00;;;;;;;3.48;56.15;100398.27;107941;1261;73439;-75
2023/02/04 09:08:46;;;;;;;5.00;3.30;;;;;;;3.47;56.20;100396.77;107957;1257;71255;-77
2023/02/04 09:11:15;;;;;;;6.60;4.80;;;;;;;3.44;55.97;100400.00;108005;1257;70598;-77
2023/02/04 09:13:43;;;;;;;6.10;4.00;;;;;;;3.43;55.92;100398.75;107909;1262;60348;-75
2023/02/04 09:16:12;;;;;;;6.60;4.30;;;;;;;3.43;55.79;100399.44;107991;1258;60300;-75
2023/02/04 09:18:41;;;;;;;7.00;4.20;;;;;;;3.46;56.08;100400.02;107959;1261;75084;-76
2023/02/04 09:21:09;;;;;;;7.30;4.10;;;;;;;3.48;56.14;100398.80;108035;1258;74290;-75
2023/02/04 09:23:38;;;;;;;5.70;3.90;;;;;;;3.50;55.94;100398.54;108018;1257;72037;-75
2023/02/04 09:26:06;;;;;;;5.50;3.80;;;;;;;3.51;55.51;100395.27;107940;1261;61775;-75
2023/02/04 09:28:34;;;;;;;6.00;3.80;;;;;;;3.50;55.33;100395.61;107913;1258;60396;-76
2023/02/04 09:31:05;;;;;;;5.60;3.80;;;;;;;3.50;55.16;100395.23;107972;1261;74468;-77
2023/02/04 09:33:34;;;;;;;5.50;3.40;;;;;;;3.50;54.96;100395.98;107919;1257;72958;-77
2023/02/04 09:36:02;;;;;;;4.80;3.40;;;;;;;3.48;54.71;100394.63;108007;1257;73488;-76
2023/02/04 09:38:31;;;;;;;5.00;3.60;;;;;;;3.44;54.69;100391.55;107911;1261;61402;-75
2023/02/04 09:41:01;;;;;;;5.00;3.60;;;;;;;3.46;54.94;100393.67;107964;1257;60430;-75
2023/02/04 09:43:35;;;;;;;5.50;3.40;;;;;;;3.53;54.87;100394.09;107970;1258;74120;-75
2023/02/04 09:46:03;;;;;;;5.20;3.70;;;;;;;3.55;54.74;100398.45;107981;1262;71166;-75
2023/02/04 09:48:32;;;;;;;5.60;3.70;;;;;;;3.52;54.65;100402.73;107974;1258;73131;-77
2023/02/04 09:51:05;;;;;;;7.00;4.10;;;;;;;3.50;54.53;100400.55;107990;1258;60483;-77
2023/02/04 09:53:34;;;;;;;6.60;3.90;;;;;;;3.48;54.54;100399.48;107930;1257;61116;-76
2023/02/04 09:56:02;;;;;;;5.50;3.50;;;;;;;3.45;54.58;100399.02;107960;1257;73040;-76
2023/02/04 09:58:32;;;;;;;5.30;3.40;;;;;;;3.42;54.64;100399.21;107939;1258;72421;-76
2023/02/04 10:01:10;;;;;;;5.60;3.80;;;;;;;3.44;54.94;100402.97;107998;1258;73273;-76
2023/02/04 10:03:45;;;;;;;5.30;3.50;;;;;;;3.49;55.05;100403.81;107906;1257;60454;-75
2023/02/04 10:06:18;;;;;;;7.70;4.30;;;;;;;3.50;54.85;100411.45;107922;1257;60686;-75
2023/02/04 10:08:48;;;;;;;7.20;4.40;;;;;;;3.46;54.72;100410.98;107926;1259;72744;-76
2023/02/04 10:11:19;;;;;;;6.20;4.30;;;;;;;3.43;54.80;100416.82;107814;1261;73046;-75
2023/02/04 10:13:49;;;;;;;6.80;4.60;;;;;;;3.45;54.81;100417.70;108002;1257;73879;-76
2023/02/04 10:16:20;;;;;;;6.80;4.80;;;;;;;3.45;54.93;100417.62;107920;1257;60419;-76
2023/02/04 10:18:48;;;;;;;6.50;4.70;;;;;;;3.44;54.97;100417.88;108029;1256;61505;-76
2023/02/04 10:21:25;;;;;;;6.70;4.30;;;;;;;3.43;55.03;100418.08;108078;1257;73837;-75
2023/02/04 10:23:56;;;;;;;5.70;4.10;;;;;;;3.42;55.05;100422.96;107841;1260;73695;-75
2023/02/04 10:26:27;;;;;;;6.20;4.40;;;;;;;3.41;55.39;100426.38;107763;1261;71896;-76
2023/02/04 10:29:06;;;;;;;6.60;4.20;;;;;;;3.38;55.40;100430.20;107897;1257;60297;-75
2023/02/04 10:31:38;;;;;;;5.30;3.70;;;;;;;3.37;55.74;100435.87;107941;1258;60787;-76
2023/02/04 10:34:30;;;;;;;5.70;3.90;;;;;;;3.34;55.80;100438.77;107823;1257;74084;-76
2023/02/04 10:36:59;;;;;;;6.60;3.80;;;;;;;3.26;55.96;100443.56;107867;1257;71722;-76
2023/02/04 10:39:28;;;;;;;5.80;3.90;;;;;;;3.22;55.99;100446.58;107835;1257;74603;-76
2023/02/04 10:41:58;;;;;;;5.30;4.10;;;;;;;3.15;56.09;100446.88;107789;1257;60476;-77
2023/02/04 10:44:34;;;;;;;5.80;4.40;;;;;;;3.11;56.36;100454.81;107817;1258;60317;-75
2023/02/04 10:47:05;;;;;;;6.60;4.70;;;;;;;3.10;56.48;100458.43;107820;1257;74823;-77
2023/02/04 10:49:35;;;;;;;7.50;5.10;;;;;;;3.10;56.46;100463.75;107716;1263;72289;-77
2023/02/04 10:52:12;;;;;;;5.50;4.20;;;;;;;3.09;56.55;100463.74;107807;1257;73921;-77
2023/02/04 10:54:41;;;;;;;5.80;3.90;;;;;;;3.12;56.71;100468.00;107850;1262;60429;-76
2023/02/04 10:57:16;;;;;;;5.40;3.90;;;;;;;3.15;56.66;100466.67;107916;1259;60055;-76
2023/02/04 10:59:44;;;;;;;5.60;3.90;;;;;;;3.15;56.52;100470.46;107885;1257;73399;-77
2023/02/04 11:02:53;;;;;;;4.50;3.40;;;;;;;3.12;56.35;100469.95;107829;1257;73756;-76
2023/02/04 11:05:24;;;;;;;4.60;3.30;;;;;;;3.10;56.58;100477.67;107780;1257;73912;-76
2023/02/04 11:07:52;;;;;;;5.70;3.30;;;;;;;3.10;56.69;100483.80;107831;1257;61355;-76
2023/02/04 11:10:24;;;;;;;5.10;3.20;;;;;;;3.09;56.62;100494.27;107829;1257;62028;-75
2023/02/04 11:13:01;;;;;;;4.80;3.50;;;;;;;3.04;56.43;100490.48;107728;1257;73850;-76
2023/02/04 11:15:53;;;;;;;5.10;3.60;;;;;;;2.99;56.55;100497.55;107850;1257;73926;-76
2023/02/04 11:18:22;;;;;;;4.80;3.20;;;;;;;2.91;56.68;100493.73;107811;1257;71897;-76
2023/02/04 11:20:52;;;;;;;5.40;3.20;;;;;;;2.86;56.76;100496.30;107801;1257;60419;-76
2023/02/04 11:23:31;;;;;;;5.00;3.30;;;;;;;2.81;56.88;100500.66;107738;1258;60314;-76
2023/02/04 11:26:16;;;;;;;5.80;3.90;;;;;;;2.74;56.94;100503.34;107852;1263;74659;-76
2023/02/04 11:28:51;;;;;;;4.50;3.10;;;;;;;2.71;57.20;100510.30;107815;1257;73122;-76
2023/02/04 11:31:20;;;;;;;7.10;3.70;;;;;;;2.69;57.29;100508.63;107798;1260;73440;-76
2023/02/04 11:33:49;;;;;;;6.30;3.90;;;;;;;2.69;57.31;100511.63;107789;1258;62246;-76